sensor_id;sensor_type;location;lat;lon;timestamp;P1;durP1;ratioP1;P2;durP2;ratioP2
33738;SDS011;20063;51.730;11.110;2023-04-01T00:01:37;6.53;;;2.55;;
33738;SDS011;20063;51.730;11.110;2023-04-01T00:04:03;7.88;;;2.20;;
33738;SDS011;20063;51.730;11.110;2023-04-01T00:06:28;10.18;;;3.00;;
33738;SDS011;20063;51.730;11.110;2023-04-01T00:08:54;10.93;;;2.40;;
33738;SDS011;20063;51.730;11.110;2023-04-01T00:11:20;10.35;;;2.60;;
33738;SDS011;20063;51.730;11.110;2023-04-01T00:13:46;8.98;;;2.38;;
33738;SDS011;20063;51.730;11.110;2023-04-01T00:16:12;8.95;;;2.65;;
33738;SDS011;20063;51.730;11.110;2023-04-01T00:18:38;7.22;;;2.60;;
33738;SDS011;20063;51.730;11.110;2023-04-01T00:21:03;9.88;;;2.03;;
33738;SDS011;20063;51.730;11.110;2023-04-01T00:23:29;13.80;;;2.10;;
33738;SDS011;20063;51.730;11.110;2023-04-01T00:25:55;7.65;;;2.45;;
33738;SDS011;20063;51.730;11.110;2023-04-01T00:28:20;9.32;;;2.53;;
33738;SDS011;20063;51.730;11.110;2023-04-01T00:30:47;11.25;;;2.63;;
33738;SDS011;20063;51.730;11.110;2023-04-01T00:33:12;11.88;;;2.50;;
33738;SDS011;20063;51.730;11.110;2023-04-01T00:35:38;8.23;;;2.50;;
33738;SDS011;20063;51.730;11.110;2023-04-01T00:38:04;7.72;;;2.92;;
33738;SDS011;20063;51.730;11.110;2023-04-01T00:40:32;5.22;;;2.20;;
33738;SDS011;20063;51.730;11.110;2023-04-01T00:43:00;5.80;;;2.40;;
33738;SDS011;20063;51.730;11.110;2023-04-01T00:45:27;8.60;;;2.22;;
33738;SDS011;20063;51.730;11.110;2023-04-01T00:47:55;8.75;;;2.75;;
33738;SDS011;20063;51.730;11.110;2023-04-01T00:50:23;6.38;;;2.63;;
33738;SDS011;20063;51.730;11.110;2023-04-01T00:52:53;9.63;;;2.92;;
33738;SDS011;20063;51.730;11.110;2023-04-01T00:55:19;6.13;;;2.20;;
33738;SDS011;20063;51.730;11.110;2023-04-01T00:57:46;9.40;;;2.65;;
33738;SDS011;20063;51.730;11.110;2023-04-01T01:00:15;8.20;;;2.20;;
33738;SDS011;20063;51.730;11.110;2023-04-01T01:02:45;8.45;;;2.10;;
33738;SDS011;20063;51.730;11.110;2023-04-01T01:05:12;4.30;;;1.77;;
33738;SDS011;20063;51.730;11.110;2023-04-01T01:10:24;11.40;;;2.90;;
33738;SDS011;20063;51.730;11.110;2023-04-01T01:18:30;12.73;;;3.00;;
33738;SDS011;20063;51.730;11.110;2023-04-01T01:22:10;9.98;;;1.98;;
33738;SDS011;20063;51.730;11.110;2023-04-01T01:27:37;10.43;;;3.08;;
33738;SDS011;20063;51.730;11.110;2023-04-01T01:30:09;12.02;;;2.20;;
33738;SDS011;20063;51.730;11.110;2023-04-01T01:35:31;7.35;;;2.03;;
33738;SDS011;20063;51.730;11.110;2023-04-01T01:38:04;11.25;;;2.42;;
33738;SDS011;20063;51.730;11.110;2023-04-01T01:40:33;4.43;;;2.00;;
33738;SDS011;20063;51.730;11.110;2023-04-01T01:43:05;9.52;;;2.33;;
33738;SDS011;20063;51.730;11.110;2023-04-01T01:45:34;4.32;;;1.63;;
33738;SDS011;20063;51.730;11.110;2023-04-01T01:48:04;6.20;;;2.03;;
33738;SDS011;20063;51.730;11.110;2023-04-01T01:50:31;9.88;;;2.20;;
33738;SDS011;20063;51.730;11.110;2023-04-01T01:53:05;4.40;;;1.75;;
33738;SDS011;20063;51.730;11.110;2023-04-01T01:55:38;5.53;;;1.60;;
33738;SDS011;20063;51.730;11.110;2023-04-01T01:58:17;10.68;;;2.00;;
33738;SDS011;20063;51.730;11.110;2023-04-01T02:01:29;7.32;;;2.00;;
33738;SDS011;20063;51.730;11.110;2023-04-01T02:03:56;7.20;;;2.00;;
33738;SDS011;20063;51.730;11.110;2023-04-01T02:06:23;7.35;;;1.85;;
33738;SDS011;20063;51.730;11.110;2023-04-01T02:08:57;12.13;;;2.50;;
33738;SDS011;20063;51.730;11.110;2023-04-01T02:11:27;8.93;;;2.13;;
33738;SDS011;20063;51.730;11.110;2023-04-01T02:16:49;5.40;;;1.80;;
33738;SDS011;20063;51.730;11.110;2023-04-01T02:19:33;6.03;;;1.90;;
33738;SDS011;20063;51.730;11.110;2023-04-01T02:22:17;9.10;;;1.80;;
33738;SDS011;20063;51.730;11.110;2023-04-01T02:24:47;8.00;;;1.85;;
33738;SDS011;20063;51.730;11.110;2023-04-01T02:27:15;7.07;;;1.88;;
33738;SDS011;20063;51.730;11.110;2023-04-01T02:29:41;4.88;;;1.70;;
33738;SDS011;20063;51.730;11.110;2023-04-01T02:32:07;5.57;;;1.95;;
33738;SDS011;20063;51.730;11.110;2023-04-01T02:34:35;7.72;;;1.80;;
33738;SDS011;20063;51.730;11.110;2023-04-01T02:37:01;8.13;;;1.70;;
33738;SDS011;20063;51.730;11.110;2023-04-01T02:39:27;7.60;;;1.77;;
33738;SDS011;20063;51.730;11.110;2023-04-01T02:41:52;5.20;;;1.70;;
33738;SDS011;20063;51.730;11.110;2023-04-01T02:44:18;6.07;;;1.65;;
33738;SDS011;20063;51.730;11.110;2023-04-01T02:46:44;10.40;;;1.73;;
33738;SDS011;20063;51.730;11.110;2023-04-01T02:49:09;4.75;;;1.35;;
33738;SDS011;20063;51.730;11.110;2023-04-01T02:51:35;7.82;;;1.95;;
33738;SDS011;20063;51.730;11.110;2023-04-01T02:54:01;7.28;;;1.88;;
33738;SDS011;20063;51.730;11.110;2023-04-01T02:56:27;7.25;;;2.20;;
33738;SDS011;20063;51.730;11.110;2023-04-01T02:58:53;5.38;;;1.55;;
33738;SDS011;20063;51.730;11.110;2023-04-01T03:01:19;3.53;;;1.65;;
33738;SDS011;20063;51.730;11.110;2023-04-01T03:03:45;4.85;;;1.80;;
33738;SDS011;20063;51.730;11.110;2023-04-01T03:06:12;4.00;;;1.52;;
33738;SDS011;20063;51.730;11.110;2023-04-01T03:08:40;7.25;;;1.65;;
33738;SDS011;20063;51.730;11.110;2023-04-01T03:11:06;6.50;;;1.80;;
33738;SDS011;20063;51.730;11.110;2023-04-01T03:13:35;4.75;;;1.40;;
33738;SDS011;20063;51.730;11.110;2023-04-01T03:16:00;4.70;;;1.60;;
33738;SDS011;20063;51.730;11.110;2023-04-01T03:18:26;8.23;;;1.38;;
33738;SDS011;20063;51.730;11.110;2023-04-01T03:20:52;5.93;;;1.60;;
33738;SDS011;20063;51.730;11.110;2023-04-01T03:23:18;5.45;;;1.45;;
33738;SDS011;20063;51.730;11.110;2023-04-01T03:25:45;4.70;;;1.40;;
33738;SDS011;20063;51.730;11.110;2023-04-01T03:28:13;4.63;;;1.65;;
33738;SDS011;20063;51.730;11.110;2023-04-01T03:30:39;2.17;;;1.17;;
33738;SDS011;20063;51.730;11.110;2023-04-01T03:33:05;2.53;;;1.48;;
33738;SDS011;20063;51.730;11.110;2023-04-01T03:35:38;4.72;;;1.60;;
33738;SDS011;20063;51.730;11.110;2023-04-01T03:38:04;5.95;;;1.40;;
33738;SDS011;20063;51.730;11.110;2023-04-01T03:40:29;4.10;;;1.20;;
33738;SDS011;20063;51.730;11.110;2023-04-01T03:42:55;6.80;;;1.90;;
33738;SDS011;20063;51.730;11.110;2023-04-01T03:45:22;7.78;;;2.08;;
33738;SDS011;20063;51.730;11.110;2023-04-01T03:47:47;4.80;;;1.45;;
33738;SDS011;20063;51.730;11.110;2023-04-01T03:50:13;6.93;;;2.15;;
33738;SDS011;20063;51.730;11.110;2023-04-01T03:52:38;3.47;;;1.90;;
33738;SDS011;20063;51.730;11.110;2023-04-01T03:55:04;5.43;;;1.65;;
33738;SDS011;20063;51.730;11.110;2023-04-01T03:57:31;3.92;;;1.60;;
33738;SDS011;20063;51.730;11.110;2023-04-01T03:59:58;3.95;;;1.70;;
33738;SDS011;20063;51.730;11.110;2023-04-01T04:02:23;7.80;;;1.60;;
33738;SDS011;20063;51.730;11.110;2023-04-01T04:04:49;4.43;;;1.50;;
33738;SDS011;20063;51.730;11.110;2023-04-01T04:07:15;5.38;;;1.10;;
33738;SDS011;20063;51.730;11.110;2023-04-01T04:09:40;4.50;;;1.42;;
33738;SDS011;20063;51.730;11.110;2023-04-01T04:12:09;4.28;;;2.03;;
33738;SDS011;20063;51.730;11.110;2023-04-01T04:14:34;3.88;;;1.60;;
33738;SDS011;20063;51.730;11.110;2023-04-01T04:17:00;2.30;;;1.30;;
33738;SDS011;20063;51.730;11.110;2023-04-01T04:19:26;4.63;;;2.20;;
33738;SDS011;20063;51.730;11.110;2023-04-01T04:21:51;6.55;;;1.92;;
33738;SDS011;20063;51.730;11.110;2023-04-01T04:24:17;5.18;;;1.52;;
33738;SDS011;20063;51.730;11.110;2023-04-01T04:26:43;2.78;;;1.52;;
33738;SDS011;20063;51.730;11.110;2023-04-01T04:29:08;2.13;;;1.27;;
33738;SDS011;20063;51.730;11.110;2023-04-01T04:31:35;4.20;;;1.52;;
33738;SDS011;20063;51.730;11.110;2023-04-01T04:34:01;4.82;;;1.70;;
33738;SDS011;20063;51.730;11.110;2023-04-01T04:36:26;1.27;;;1.08;;
33738;SDS011;20063;51.730;11.110;2023-04-01T04:38:52;1.38;;;1.08;;
33738;SDS011;20063;51.730;11.110;2023-04-01T04:41:18;4.60;;;1.13;;
33738;SDS011;20063;51.730;11.110;2023-04-01T04:43:51;4.95;;;1.40;;
33738;SDS011;20063;51.730;11.110;2023-04-01T04:46:21;3.08;;;2.00;;
33738;SDS011;20063;51.730;11.110;2023-04-01T04:48:48;10.52;;;1.73;;
33738;SDS011;20063;51.730;11.110;2023-04-01T04:51:14;3.47;;;1.42;;
33738;SDS011;20063;51.730;11.110;2023-04-01T04:53:44;5.35;;;1.60;;
33738;SDS011;20063;51.730;11.110;2023-04-01T04:56:10;6.50;;;1.58;;
33738;SDS011;20063;51.730;11.110;2023-04-01T04:58:36;4.55;;;1.27;;
33738;SDS011;20063;51.730;11.110;2023-04-01T05:01:06;2.95;;;1.23;;
33738;SDS011;20063;51.730;11.110;2023-04-01T05:03:33;4.57;;;1.70;;
33738;SDS011;20063;51.730;11.110;2023-04-01T05:05:58;2.97;;;1.10;;
33738;SDS011;20063;51.730;11.110;2023-04-01T05:08:24;3.70;;;1.30;;
33738;SDS011;20063;51.730;11.110;2023-04-01T05:10:49;5.43;;;1.55;;
33738;SDS011;20063;51.730;11.110;2023-04-01T05:13:15;4.03;;;1.65;;
33738;SDS011;20063;51.730;11.110;2023-04-01T05:15:41;4.68;;;1.42;;
33738;SDS011;20063;51.730;11.110;2023-04-01T05:18:06;3.55;;;1.80;;
33738;SDS011;20063;51.730;11.110;2023-04-01T05:20:32;3.03;;;1.60;;
33738;SDS011;20063;51.730;11.110;2023-04-01T05:22:58;3.95;;;1.77;;
33738;SDS011;20063;51.730;11.110;2023-04-01T05:25:24;8.40;;;3.13;;
33738;SDS011;20063;51.730;11.110;2023-04-01T05:27:50;7.90;;;2.38;;
33738;SDS011;20063;51.730;11.110;2023-04-01T05:30:16;5.45;;;2.58;;
33738;SDS011;20063;51.730;11.110;2023-04-01T05:32:41;8.40;;;2.67;;
33738;SDS011;20063;51.730;11.110;2023-04-01T05:35:08;5.95;;;2.05;;
33738;SDS011;20063;51.730;11.110;2023-04-01T05:37:35;10.65;;;2.00;;
33738;SDS011;20063;51.730;11.110;2023-04-01T05:40:01;4.07;;;1.77;;
33738;SDS011;20063;51.730;11.110;2023-04-01T05:42:28;3.83;;;1.58;;
33738;SDS011;20063;51.730;11.110;2023-04-01T05:44:54;3.05;;;1.35;;
33738;SDS011;20063;51.730;11.110;2023-04-01T05:47:21;3.15;;;1.30;;
33738;SDS011;20063;51.730;11.110;2023-04-01T05:49:47;3.83;;;1.27;;
33738;SDS011;20063;51.730;11.110;2023-04-01T05:52:13;5.82;;;1.40;;
33738;SDS011;20063;51.730;11.110;2023-04-01T05:54:39;3.90;;;1.45;;
33738;SDS011;20063;51.730;11.110;2023-04-01T05:57:05;5.85;;;1.48;;
33738;SDS011;20063;51.730;11.110;2023-04-01T05:59:30;3.58;;;1.38;;
33738;SDS011;20063;51.730;11.110;2023-04-01T06:01:57;8.38;;;2.03;;
33738;SDS011;20063;51.730;11.110;2023-04-01T06:04:23;6.05;;;1.88;;
33738;SDS011;20063;51.730;11.110;2023-04-01T06:06:50;4.85;;;1.50;;
33738;SDS011;20063;51.730;11.110;2023-04-01T06:09:17;4.72;;;1.33;;
33738;SDS011;20063;51.730;11.110;2023-04-01T06:17:46;6.93;;;1.42;;
33738;SDS011;20063;51.730;11.110;2023-04-01T06:23:19;4.80;;;1.90;;
33738;SDS011;20063;51.730;11.110;2023-04-01T06:31:57;8.45;;;3.00;;
33738;SDS011;20063;51.730;11.110;2023-04-01T06:46:09;10.15;;;2.00;;
33738;SDS011;20063;51.730;11.110;2023-04-01T06:48:59;3.42;;;1.25;;
33738;SDS011;20063;51.730;11.110;2023-04-01T06:54:38;4.38;;;1.30;;
33738;SDS011;20063;51.730;11.110;2023-04-01T06:57:19;4.47;;;1.52;;
33738;SDS011;20063;51.730;11.110;2023-04-01T07:00:19;7.80;;;1.50;;
33738;SDS011;20063;51.730;11.110;2023-04-01T07:05:51;5.57;;;1.50;;
33738;SDS011;20063;51.730;11.110;2023-04-01T07:08:27;9.15;;;1.40;;
33738;SDS011;20063;51.730;11.110;2023-04-01T07:13:27;5.18;;;1.20;;
33738;SDS011;20063;51.730;11.110;2023-04-01T07:15:59;2.70;;;1.10;;
33738;SDS011;20063;51.730;11.110;2023-04-01T07:18:52;4.03;;;1.30;;
33738;SDS011;20063;51.730;11.110;2023-04-01T07:21:27;4.60;;;1.35;;
33738;SDS011;20063;51.730;11.110;2023-04-01T07:24:01;5.63;;;1.55;;
33738;SDS011;20063;51.730;11.110;2023-04-01T07:26:33;9.40;;;1.55;;
33738;SDS011;20063;51.730;11.110;2023-04-01T07:28:59;3.65;;;1.20;;
33738;SDS011;20063;51.730;11.110;2023-04-01T07:31:30;5.20;;;1.52;;
33738;SDS011;20063;51.730;11.110;2023-04-01T07:40:36;2.72;;;1.10;;
33738;SDS011;20063;51.730;11.110;2023-04-01T07:48:21;5.82;;;1.13;;
33738;SDS011;20063;51.730;11.110;2023-04-01T07:51:07;9.30;;;1.73;;
33738;SDS011;20063;51.730;11.110;2023-04-01T07:53:37;3.58;;;1.48;;
33738;SDS011;20063;51.730;11.110;2023-04-01T07:56:10;6.38;;;1.45;;
33738;SDS011;20063;51.730;11.110;2023-04-01T07:58:58;4.30;;;1.58;;
33738;SDS011;20063;51.730;11.110;2023-04-01T08:07:07;1.88;;;1.13;;
33738;SDS011;20063;51.730;11.110;2023-04-01T08:15:49;2.30;;;0.90;;
33738;SDS011;20063;51.730;11.110;2023-04-01T08:23:54;6.80;;;1.05;;
33738;SDS011;20063;51.730;11.110;2023-04-01T08:31:53;1.45;;;0.82;;
33738;SDS011;20063;51.730;11.110;2023-04-01T08:34:26;3.35;;;0.80;;
33738;SDS011;20063;51.730;11.110;2023-04-01T08:37:25;6.43;;;2.42;;
33738;SDS011;20063;51.730;11.110;2023-04-01T08:39:54;1.40;;;0.80;;
33738;SDS011;20063;51.730;11.110;2023-04-01T08:43:13;1.77;;;0.63;;
33738;SDS011;20063;51.730;11.110;2023-04-01T08:48:08;2.92;;;1.23;;
33738;SDS011;20063;51.730;11.110;2023-04-01T08:53:36;3.97;;;0.65;;
33738;SDS011;20063;51.730;11.110;2023-04-01T09:11:06;5.60;;;2.17;;
33738;SDS011;20063;51.730;11.110;2023-04-01T09:13:55;6.28;;;0.98;;
33738;SDS011;20063;51.730;11.110;2023-04-01T09:36:47;2.30;;;0.82;;
33738;SDS011;20063;51.730;11.110;2023-04-01T09:44:53;1.73;;;0.85;;
33738;SDS011;20063;51.730;11.110;2023-04-01T09:50:32;1.45;;;0.65;;
33738;SDS011;20063;51.730;11.110;2023-04-01T09:53:14;6.85;;;1.75;;
33738;SDS011;20063;51.730;11.110;2023-04-01T10:02:00;4.05;;;1.05;;
33738;SDS011;20063;51.730;11.110;2023-04-01T10:04:49;1.52;;;0.60;;
33738;SDS011;20063;51.730;11.110;2023-04-01T10:08:21;4.60;;;0.73;;
33738;SDS011;20063;51.730;11.110;2023-04-01T10:14:11;1.80;;;0.80;;
33738;SDS011;20063;51.730;11.110;2023-04-01T10:31:34;1.67;;;1.05;;
33738;SDS011;20063;51.730;11.110;2023-04-01T10:39:20;1.88;;;1.25;;
33738;SDS011;20063;51.730;11.110;2023-04-01T10:44:40;1.67;;;0.80;;
33738;SDS011;20063;51.730;11.110;2023-04-01T10:48:01;2.47;;;0.80;;
33738;SDS011;20063;51.730;11.110;2023-04-01T10:53:58;1.10;;;0.80;;
33738;SDS011;20063;51.730;11.110;2023-04-01T10:56:59;1.92;;;1.02;;
33738;SDS011;20063;51.730;11.110;2023-04-01T11:00:01;0.80;;;0.80;;
33738;SDS011;20063;51.730;11.110;2023-04-01T11:08:38;5.22;;;0.80;;
33738;SDS011;20063;51.730;11.110;2023-04-01T11:11:40;0.88;;;0.63;;
33738;SDS011;20063;51.730;11.110;2023-04-01T11:23:12;0.52;;;0.52;;
33738;SDS011;20063;51.730;11.110;2023-04-01T11:40:12;0.68;;;0.68;;
33738;SDS011;20063;51.730;11.110;2023-04-01T11:45:35;2.85;;;1.98;;
33738;SDS011;20063;51.730;11.110;2023-04-01T11:54:17;2.63;;;1.43;;
33738;SDS011;20063;51.730;11.110;2023-04-01T12:02:29;2.63;;;1.38;;
33738;SDS011;20063;51.730;11.110;2023-04-01T12:05:17;1.00;;;0.77;;
33738;SDS011;20063;51.730;11.110;2023-04-01T12:13:32;1.55;;;1.20;;
33738;SDS011;20063;51.730;11.110;2023-04-01T12:16:24;2.13;;;1.25;;
33738;SDS011;20063;51.730;11.110;2023-04-01T12:21:42;0.80;;;0.60;;
33738;SDS011;20063;51.730;11.110;2023-04-01T12:24:41;2.50;;;0.68;;
33738;SDS011;20063;51.730;11.110;2023-04-01T12:33:14;1.45;;;0.60;;
33738;SDS011;20063;51.730;11.110;2023-04-01T12:42:04;0.50;;;0.50;;
33738;SDS011;20063;51.730;11.110;2023-04-01T12:44:43;0.77;;;0.77;;
33738;SDS011;20063;51.730;11.110;2023-04-01T12:47:30;1.25;;;1.02;;
33738;SDS011;20063;51.730;11.110;2023-04-01T12:53:46;1.20;;;0.77;;
33738;SDS011;20063;51.730;11.110;2023-04-01T13:07:52;1.05;;;0.60;;
33738;SDS011;20063;51.730;11.110;2023-04-01T13:10:38;1.05;;;0.85;;
33738;SDS011;20063;51.730;11.110;2023-04-01T13:16:14;2.97;;;1.35;;
33738;SDS011;20063;51.730;11.110;2023-04-01T13:18:52;1.40;;;0.55;;
33738;SDS011;20063;51.730;11.110;2023-04-01T13:21:33;0.63;;;0.40;;
33738;SDS011;20063;51.730;11.110;2023-04-01T13:27:14;3.50;;;1.02;;
33738;SDS011;20063;51.730;11.110;2023-04-01T13:32:46;1.48;;;0.68;;
33738;SDS011;20063;51.730;11.110;2023-04-01T13:41:09;1.55;;;0.60;;
33738;SDS011;20063;51.730;11.110;2023-04-01T13:43:59;0.63;;;0.60;;
33738;SDS011;20063;51.730;11.110;2023-04-01T13:46:39;8.27;;;2.22;;
33738;SDS011;20063;51.730;11.110;2023-04-01T14:02:40;1.88;;;0.90;;
33738;SDS011;20063;51.730;11.110;2023-04-01T14:05:24;3.08;;;1.00;;
33738;SDS011;20063;51.730;11.110;2023-04-01T14:11:20;1.63;;;0.60;;
33738;SDS011;20063;51.730;11.110;2023-04-01T14:16:51;0.40;;;0.40;;
33738;SDS011;20063;51.730;11.110;2023-04-01T14:25:43;7.00;;;3.42;;
33738;SDS011;20063;51.730;11.110;2023-04-01T14:33:35;2.08;;;1.20;;
33738;SDS011;20063;51.730;11.110;2023-04-01T14:36:15;0.95;;;0.77;;
33738;SDS011;20063;51.730;11.110;2023-04-01T14:39:12;2.42;;;1.02;;
33738;SDS011;20063;51.730;11.110;2023-04-01T14:45:07;1.63;;;1.27;;
33738;SDS011;20063;51.730;11.110;2023-04-01T14:50:14;6.30;;;1.75;;
33738;SDS011;20063;51.730;11.110;2023-04-01T14:53:12;1.30;;;1.20;;
33738;SDS011;20063;51.730;11.110;2023-04-01T14:55:55;1.30;;;1.20;;
33738;SDS011;20063;51.730;11.110;2023-04-01T14:58:24;3.28;;;1.38;;
33738;SDS011;20063;51.730;11.110;2023-04-01T15:01:17;2.03;;;1.08;;
33738;SDS011;20063;51.730;11.110;2023-04-01T15:04:26;0.90;;;0.90;;
33738;SDS011;20063;51.730;11.110;2023-04-01T15:13:04;1.20;;;1.00;;
33738;SDS011;20063;51.730;11.110;2023-04-01T15:19:50;1.40;;;1.30;;
33738;SDS011;20063;51.730;11.110;2023-04-01T15:30:32;2.40;;;0.90;;
33738;SDS011;20063;51.730;11.110;2023-04-01T15:33:17;6.35;;;1.60;;
33738;SDS011;20063;51.730;11.110;2023-04-01T15:38:58;2.63;;;2.30;;
33738;SDS011;20063;51.730;11.110;2023-04-01T15:41:37;13.63;;;2.42;;
33738;SDS011;20063;51.730;11.110;2023-04-01T15:46:58;8.63;;;2.15;;
33738;SDS011;20063;51.730;11.110;2023-04-01T15:49:33;3.17;;;1.70;;
33738;SDS011;20063;51.730;11.110;2023-04-01T15:52:22;2.10;;;1.73;;
33738;SDS011;20063;51.730;11.110;2023-04-01T16:06:32;6.15;;;1.38;;
33738;SDS011;20063;51.730;11.110;2023-04-01T16:09:19;5.18;;;1.30;;
33738;SDS011;20063;51.730;11.110;2023-04-01T16:12:15;5.30;;;1.83;;
33738;SDS011;20063;51.730;11.110;2023-04-01T16:15:08;5.75;;;2.63;;
33738;SDS011;20063;51.730;11.110;2023-04-01T16:17:54;3.22;;;1.70;;
33738;SDS011;20063;51.730;11.110;2023-04-01T16:20:42;9.65;;;2.78;;
33738;SDS011;20063;51.730;11.110;2023-04-01T16:39:38;6.75;;;3.08;;
33738;SDS011;20063;51.730;11.110;2023-04-01T16:42:40;7.13;;;4.03;;
33738;SDS011;20063;51.730;11.110;2023-04-01T16:48:13;7.15;;;4.18;;
33738;SDS011;20063;51.730;11.110;2023-04-01T16:50:51;5.40;;;3.55;;
33738;SDS011;20063;51.730;11.110;2023-04-01T16:53:34;4.93;;;3.58;;
33738;SDS011;20063;51.730;11.110;2023-04-01T16:56:36;4.55;;;3.60;;
33738;SDS011;20063;51.730;11.110;2023-04-01T17:01:50;4.45;;;3.72;;
33738;SDS011;20063;51.730;11.110;2023-04-01T17:07:21;9.63;;;3.92;;
33738;SDS011;20063;51.730;11.110;2023-04-01T17:09:58;9.60;;;4.50;;
33738;SDS011;20063;51.730;11.110;2023-04-01T17:20:48;6.25;;;3.75;;
33738;SDS011;20063;51.730;11.110;2023-04-01T17:23:30;5.18;;;3.08;;
33738;SDS011;20063;51.730;11.110;2023-04-01T17:31:36;8.85;;;6.78;;
33738;SDS011;20063;51.730;11.110;2023-04-01T17:34:17;12.05;;;8.18;;
33738;SDS011;20063;51.730;11.110;2023-04-01T17:37:25;10.63;;;8.20;;
33738;SDS011;20063;51.730;11.110;2023-04-01T17:40:13;10.40;;;8.48;;
33738;SDS011;20063;51.730;11.110;2023-04-01T17:42:48;9.55;;;7.15;;
33738;SDS011;20063;51.730;11.110;2023-04-01T17:48:44;10.82;;;9.30;;
33738;SDS011;20063;51.730;11.110;2023-04-01T17:54:05;9.73;;;8.23;;
33738;SDS011;20063;51.730;11.110;2023-04-01T18:16:55;12.15;;;10.50;;
33738;SDS011;20063;51.730;11.110;2023-04-01T18:22:09;14.57;;;10.82;;
33738;SDS011;20063;51.730;11.110;2023-04-01T18:25:02;16.55;;;12.05;;
33738;SDS011;20063;51.730;11.110;2023-04-01T18:28:11;19.10;;;12.15;;
33738;SDS011;20063;51.730;11.110;2023-04-01T18:33:44;15.52;;;11.40;;
33738;SDS011;20063;51.730;11.110;2023-04-01T18:38:47;15.35;;;10.82;;
33738;SDS011;20063;51.730;11.110;2023-04-01T18:52:59;21.60;;;15.13;;
33738;SDS011;20063;51.730;11.110;2023-04-01T18:58:46;20.27;;;15.60;;
33738;SDS011;20063;51.730;11.110;2023-04-01T19:04:37;24.23;;;17.83;;
33738;SDS011;20063;51.730;11.110;2023-04-01T19:21:47;26.77;;;17.85;;
33738;SDS011;20063;51.730;11.110;2023-04-01T19:35:20;18.75;;;14.57;;
33738;SDS011;20063;51.730;11.110;2023-04-01T19:38:03;20.45;;;14.50;;
33738;SDS011;20063;51.730;11.110;2023-04-01T19:46:41;19.65;;;14.93;;
33738;SDS011;20063;51.730;11.110;2023-04-01T19:54:54;13.63;;;11.05;;
33738;SDS011;20063;51.730;11.110;2023-04-01T20:14:53;15.68;;;13.15;;
33738;SDS011;20063;51.730;11.110;2023-04-01T20:17:23;15.10;;;11.80;;
33738;SDS011;20063;51.730;11.110;2023-04-01T20:25:25;12.23;;;10.55;;
33738;SDS011;20063;51.730;11.110;2023-04-01T20:48:09;12.32;;;10.50;;
33738;SDS011;20063;51.730;11.110;2023-04-01T20:51:37;12.82;;;10.20;;
33738;SDS011;20063;51.730;11.110;2023-04-01T20:53:53;11.55;;;9.82;;
33738;SDS011;20063;51.730;11.110;2023-04-01T20:56:30;9.55;;;7.70;;
33738;SDS011;20063;51.730;11.110;2023-04-01T21:04:44;8.63;;;6.55;;
33738;SDS011;20063;51.730;11.110;2023-04-01T21:29:40;9.70;;;7.00;;
33738;SDS011;20063;51.730;11.110;2023-04-01T21:35:58;6.43;;;4.97;;
33738;SDS011;20063;51.730;11.110;2023-04-01T21:38:43;6.63;;;4.97;;
33738;SDS011;20063;51.730;11.110;2023-04-01T22:01:47;7.45;;;6.07;;
33738;SDS011;20063;51.730;11.110;2023-04-01T22:04:41;8.38;;;6.03;;
33738;SDS011;20063;51.730;11.110;2023-04-01T22:07:25;8.07;;;6.47;;
33738;SDS011;20063;51.730;11.110;2023-04-01T22:10:10;8.88;;;6.57;;
33738;SDS011;20063;51.730;11.110;2023-04-01T22:12:47;13.20;;;8.02;;
33738;SDS011;20063;51.730;11.110;2023-04-01T22:18:04;9.43;;;6.55;;
33738;SDS011;20063;51.730;11.110;2023-04-01T22:20:50;7.68;;;5.97;;
33738;SDS011;20063;51.730;11.110;2023-04-01T22:23:31;9.85;;;6.70;;
33738;SDS011;20063;51.730;11.110;2023-04-01T22:29:07;15.50;;;7.32;;
33738;SDS011;20063;51.730;11.110;2023-04-01T22:32:13;9.95;;;6.00;;
33738;SDS011;20063;51.730;11.110;2023-04-01T22:34:48;8.50;;;5.47;;
33738;SDS011;20063;51.730;11.110;2023-04-01T22:40:25;7.82;;;6.18;;
33738;SDS011;20063;51.730;11.110;2023-04-01T22:45:45;7.70;;;5.25;;
33738;SDS011;20063;51.730;11.110;2023-04-01T22:51:22;7.35;;;5.50;;
33738;SDS011;20063;51.730;11.110;2023-04-01T22:54:14;10.95;;;6.45;;
33738;SDS011;20063;51.730;11.110;2023-04-01T22:56:53;9.50;;;6.57;;
33738;SDS011;20063;51.730;11.110;2023-04-01T22:59:40;11.07;;;6.32;;
33738;SDS011;20063;51.730;11.110;2023-04-01T23:04:54;7.57;;;5.32;;
33738;SDS011;20063;51.730;11.110;2023-04-01T23:07:38;7.68;;;5.32;;
33738;SDS011;20063;51.730;11.110;2023-04-01T23:10:41;6.97;;;5.20;;
33738;SDS011;20063;51.730;11.110;2023-04-01T23:13:16;11.07;;;4.90;;
33738;SDS011;20063;51.730;11.110;2023-04-01T23:15:45;6.53;;;5.00;;
33738;SDS011;20063;51.730;11.110;2023-04-01T23:18:22;6.28;;;4.68;;
33738;SDS011;20063;51.730;11.110;2023-04-01T23:24:13;9.40;;;5.47;;
33738;SDS011;20063;51.730;11.110;2023-04-01T23:29:27;7.07;;;4.80;;
33738;SDS011;20063;51.730;11.110;2023-04-01T23:31:56;7.82;;;5.40;;
33738;SDS011;20063;51.730;11.110;2023-04-01T23:34:24;9.27;;;5.38;;
33738;SDS011;20063;51.730;11.110;2023-04-01T23:36:56;10.57;;;6.50;;
33738;SDS011;20063;51.730;11.110;2023-04-01T23:39:26;13.02;;;6.43;;
33738;SDS011;20063;51.730;11.110;2023-04-01T23:41:55;8.95;;;5.10;;
33738;SDS011;20063;51.730;11.110;2023-04-01T23:44:24;7.78;;;5.40;;
33738;SDS011;20063;51.730;11.110;2023-04-01T23:46:53;10.63;;;6.05;;
33738;SDS011;20063;51.730;11.110;2023-04-01T23:52:04;10.23;;;6.30;;
33738;SDS011;20063;51.730;11.110;2023-04-01T23:57:23;8.27;;;5.32;;
